Time,TemperatureF,DewpointF,PressureIn,WindDirection,WindDirectionDegrees,WindSpeedMPH,WindSpeedGustMPH,Humidity,HourlyPrecipIn,Conditions,Clouds,dailyrainin,SoftwareType,DateUTC
2013-03-16 00:02:00,59.0,51.0,29.69,SW,218,8.0,13.0,75,0.00,,,0.01,,2013-03-16 05:02:00,
2013-03-16 00:12:00,59.0,51.0,29.69,SW,218,8.0,13.0,75,0.00,,,0.01,,2013-03-16 05:12:00,
2013-03-16 00:22:00,60.0,52.0,29.69,SW,222,8.0,12.0,74,0.00,,,0.01,,2013-03-16 05:22:00,
2013-03-16 00:32:00,60.0,52.0,29.68,SW,223,9.0,14.0,74,0.00,,,0.01,,2013-03-16 05:32:00,
2013-03-16 00:42:00,60.0,52.0,29.68,SW,223,9.0,14.0,74,0.00,,,0.01,,2013-03-16 05:42:00,
2013-03-16 00:52:00,61.0,52.0,29.67,SW,228,10.0,16.0,72,0.00,,,0.01,,2013-03-16 05:52:00,
2013-03-16 01:02:00,60.0,51.0,29.68,SW,231,7.0,12.0,72,0.00,,,0.01,,2013-03-16 06:02:00,
2013-03-16 01:12:00,60.0,51.0,29.68,SW,231,7.0,12.0,72,0.00,,,0.01,,2013-03-16 06:12:00,
2013-03-16 01:22:00,60.0,51.0,29.68,SW,224,7.0,12.0,72,0.00,,,0.01,,2013-03-16 06:22:00,
2013-03-16 01:32:00,60.0,51.0,29.68,WSW,241,7.0,11.0,72,0.00,,,0.01,,2013-03-16 06:32:00,
2013-03-16 01:42:00,60.0,51.0,29.68,WSW,241,7.0,11.0,72,0.00,,,0.01,,2013-03-16 06:42:00,
2013-03-16 01:52:00,60.0,51.0,29.68,WSW,243,7.0,14.0,72,0.00,,,0.01,,2013-03-16 06:52:00,
2013-03-16 02:02:00,60.0,51.0,29.68,WSW,246,7.0,11.0,72,0.00,,,0.01,,2013-03-16 07:02:00,
2013-03-16 02:12:00,60.0,51.0,29.68,WSW,246,7.0,11.0,72,0.00,,,0.01,,2013-03-16 07:12:00,
2013-03-16 02:22:00,61.0,51.0,29.69,WSW,238,9.0,15.0,70,0.00,,,0.01,,2013-03-16 07:22:00,
2013-03-16 02:32:00,61.0,51.0,29.68,SW,236,8.0,14.0,70,0.00,,,0.01,,2013-03-16 07:32:00,
2013-03-16 02:42:00,61.0,51.0,29.68,SW,236,8.0,14.0,70,0.00,,,0.01,,2013-03-16 07:42:00,
2013-03-16 02:52:00,60.0,50.0,29.68,WSW,237,7.0,12.0,70,0.00,,,0.01,,2013-03-16 07:52:00,
2013-03-16 03:02:00,59.0,50.0,29.68,WSW,238,5.0,9.0,72,0.00,,,0.01,,2013-03-16 08:02:00,
2013-03-16 03:12:00,59.0,50.0,29.68,WSW,238,5.0,9.0,72,0.00,,,0.01,,2013-03-16 08:12:00,
2013-03-16 03:23:00,59.0,50.0,29.67,WSW,237,6.0,9.0,73,0.00,,,0.01,,2013-03-16 08:23:00,
2013-03-16 03:32:00,59.0,51.0,29.67,SW,229,6.0,8.0,74,0.00,,,0.01,,2013-03-16 08:32:00,
2013-03-16 03:42:00,59.0,51.0,29.67,SW,229,6.0,8.0,74,0.00,,,0.01,,2013-03-16 08:42:00,
2013-03-16 03:52:00,59.0,51.0,29.67,SW,229,6.0,8.0,74,0.00,,,0.01,,2013-03-16 08:52:00,
2013-03-16 04:01:00,58.0,50.0,29.66,SW,227,4.0,8.0,75,0.00,,,0.01,,2013-03-16 09:01:00,
2013-03-16 04:12:00,58.0,50.0,29.66,SW,227,4.0,8.0,75,0.00,,,0.01,,2013-03-16 09:12:00,
2013-03-16 04:22:00,58.0,50.0,29.66,SW,218,7.0,12.0,75,0.00,,,0.01,,2013-03-16 09:22:00,
2013-03-16 04:33:00,59.0,50.0,29.66,SW,227,6.0,12.0,73,0.00,,,0.01,,2013-03-16 09:33:00,
2013-03-16 04:42:00,59.0,50.0,29.66,SW,227,6.0,12.0,73,0.00,,,0.01,,2013-03-16 09:42:00,
2013-03-16 04:52:00,59.0,50.0,29.66,WSW,238,7.0,10.0,73,0.00,,,0.01,,2013-03-16 09:52:00,
2013-03-16 05:03:00,58.0,49.0,29.66,SW,236,6.0,10.0,73,0.00,,,0.01,,2013-03-16 10:03:00,
2013-03-16 05:12:00,58.0,49.0,29.66,SW,236,6.0,10.0,73,0.00,,,0.01,,2013-03-16 10:12:00,
2013-03-16 05:23:00,58.0,50.0,29.66,WSW,242,5.0,8.0,74,0.00,,,0.01,,2013-03-16 10:23:00,
2013-03-16 05:32:00,57.0,49.0,29.67,WSW,252,4.0,9.0,74,0.00,,,0.01,,2013-03-16 10:32:00,
2013-03-16 05:42:00,57.0,49.0,29.67,WSW,252,4.0,9.0,74,0.00,,,0.01,,2013-03-16 10:42:00,
2013-03-16 05:52:00,57.0,49.0,29.67,SW,233,3.0,6.0,75,0.00,,,0.01,,2013-03-16 10:52:00,
2013-03-16 06:03:00,56.0,49.0,29.67,SW,229,5.0,7.0,77,0.00,,,0.01,,2013-03-16 11:03:00,
2013-03-16 06:12:00,56.0,49.0,29.67,SW,229,5.0,7.0,77,0.00,,,0.01,,2013-03-16 11:12:00,
2013-03-16 06:22:00,55.0,49.0,29.67,SW,232,4.0,6.0,79,0.00,,,0.01,,2013-03-16 11:22:00,
2013-03-16 06:32:00,54.0,48.0,29.68,SW,232,5.0,8.0,80,0.00,,,0.01,,2013-03-16 11:32:00,
2013-03-16 06:42:00,54.0,48.0,29.68,SW,232,5.0,8.0,80,0.00,,,0.01,,2013-03-16 11:42:00,
2013-03-16 06:52:00,55.0,49.0,29.68,SW,217,5.0,8.0,79,0.00,,,0.01,,2013-03-16 11:52:00,
2013-03-16 07:02:00,55.0,48.0,29.68,SW,236,4.0,8.0,78,0.00,,,0.01,,2013-03-16 12:02:00,
2013-03-16 07:12:00,55.0,48.0,29.68,SW,236,4.0,8.0,78,0.00,,,0.01,,2013-03-16 12:12:00,
2013-03-16 07:22:00,55.0,48.0,29.69,WSW,240,5.0,9.0,78,0.00,,,0.01,,2013-03-16 12:22:00,
2013-03-16 07:32:00,55.0,49.0,29.70,WSW,246,3.0,7.0,79,0.00,,,0.01,,2013-03-16 12:32:00,
2013-03-16 07:42:00,55.0,49.0,29.70,WSW,246,3.0,7.0,79,0.00,,,0.01,,2013-03-16 12:42:00,
2013-03-16 07:52:00,55.0,48.0,29.70,WSW,250,3.0,7.0,78,0.00,,,0.01,,2013-03-16 12:52:00,
2013-03-16 08:02:00,55.0,48.0,29.71,West,264,2.0,8.0,78,0.00,,,0.01,,2013-03-16 13:02:00,
2013-03-16 08:12:00,55.0,48.0,29.71,West,264,2.0,8.0,78,0.00,,,0.01,,2013-03-16 13:12:00,
2013-03-16 08:22:00,56.0,49.0,29.72,West,261,4.0,9.0,77,0.00,,,0.01,,2013-03-16 13:22:00,
2013-03-16 08:32:00,56.0,49.0,29.72,WSW,241,3.0,8.0,76,0.00,,,0.01,,2013-03-16 13:32:00,
2013-03-16 08:42:00,56.0,49.0,29.72,WSW,241,3.0,8.0,76,0.00,,,0.01,,2013-03-16 13:42:00,
2013-03-16 08:52:00,57.0,48.0,29.73,West,279,5.0,8.0,73,0.00,,,0.01,,2013-03-16 13:52:00,
2013-03-16 09:02:00,58.0,49.0,29.74,WNW,296,7.0,12.0,72,0.00,,,0.01,,2013-03-16 14:02:00,
2013-03-16 09:12:00,58.0,49.0,29.74,WNW,296,7.0,12.0,72,0.00,,,0.01,,2013-03-16 14:12:00,
2013-03-16 09:22:00,57.0,48.0,29.75,NW,314,6.0,14.0,71,0.00,,,0.00,,2013-03-16 14:22:00,
2013-03-16 09:32:00,56.0,47.0,29.77,NNW,344,11.0,16.0,73,0.00,,,0.00,,2013-03-16 14:32:00,
2013-03-16 09:42:00,56.0,47.0,29.77,NNW,344,11.0,16.0,73,0.00,,,0.00,,2013-03-16 14:42:00,
2013-03-16 09:52:00,55.0,47.0,29.78,NNW,344,11.0,20.0,75,0.00,,,0.00,,2013-03-16 14:52:00,
2013-03-16 10:02:00,53.0,46.0,29.80,WNW,301,14.0,21.0,76,0.00,,,0.00,,2013-03-16 15:02:00,
2013-03-16 10:12:00,53.0,46.0,29.80,WNW,301,14.0,21.0,76,0.00,,,0.00,,2013-03-16 15:12:00,
2013-03-16 10:22:00,51.0,44.0,29.82,NNW,332,11.0,19.0,78,0.00,,,0.00,,2013-03-16 15:22:00,
2013-03-16 10:33:00,48.0,42.0,29.83,North,355,12.0,19.0,81,0.00,,,0.00,,2013-03-16 15:33:00,
2013-03-16 10:43:00,48.0,42.0,29.83,North,355,12.0,19.0,81,0.00,,,0.00,,2013-03-16 15:43:00,
2013-03-16 10:53:00,46.0,41.0,29.85,North,350,13.0,21.0,84,0.00,,,0.00,,2013-03-16 15:53:00,
2013-03-16 11:03:00,45.0,41.0,29.86,NNW,348,11.0,21.0,86,0.00,,,0.00,,2013-03-16 16:03:00,
2013-03-16 11:12:00,45.0,41.0,29.86,NNW,348,11.0,21.0,86,0.00,,,0.00,,2013-03-16 16:12:00,
2013-03-16 11:22:00,43.0,40.0,29.89,NW,315,10.0,18.0,88,0.00,,,0.00,,2013-03-16 16:22:00,
2013-03-16 11:33:00,42.0,38.0,29.90,NNW,343,10.0,16.0,87,0.00,,,0.00,,2013-03-16 16:33:00,
2013-03-16 11:42:00,42.0,38.0,29.90,NNW,343,10.0,16.0,87,0.00,,,0.00,,2013-03-16 16:42:00,
2013-03-16 11:52:00,43.0,39.0,29.90,North,11,12.0,18.0,87,0.00,,,0.00,,2013-03-16 16:52:00,
2013-03-16 12:03:00,43.0,39.0,29.91,NW,323,8.0,16.0,87,0.00,,,0.00,,2013-03-16 17:03:00,
2013-03-16 12:12:00,43.0,39.0,29.91,NW,323,8.0,16.0,87,0.00,,,0.00,,2013-03-16 17:12:00,
2013-03-16 12:23:00,44.0,40.0,29.92,North,5,9.0,13.0,87,0.00,,,0.00,,2013-03-16 17:23:00,
2013-03-16 12:32:00,44.0,39.0,29.92,North,355,10.0,19.0,84,0.00,,,0.00,,2013-03-16 17:32:00,
2013-03-16 12:42:00,44.0,39.0,29.92,North,355,10.0,19.0,84,0.00,,,0.00,,2013-03-16 17:42:00,
2013-03-16 12:52:00,45.0,40.0,29.92,North,355,10.0,16.0,84,0.00,,,0.00,,2013-03-16 17:52:00,
2013-03-16 13:02:00,45.0,40.0,29.93,NNW,333,8.0,16.0,84,0.00,,,0.00,,2013-03-16 18:02:00,
2013-03-16 13:13:00,45.0,40.0,29.93,NNW,333,8.0,16.0,84,0.00,,,0.00,,2013-03-16 18:13:00,
2013-03-16 13:22:00,45.0,40.0,29.95,NNW,337,8.0,13.0,82,0.00,,,0.00,,2013-03-16 18:22:00,
2013-03-16 13:33:00,46.0,40.0,29.95,NNE,13,8.0,13.0,80,0.00,,,0.00,,2013-03-16 18:33:00,
2013-03-16 13:42:00,46.0,40.0,29.95,NNE,13,8.0,13.0,80,0.00,,,0.00,,2013-03-16 18:42:00,
2013-03-16 13:52:00,45.0,39.0,29.96,North,350,11.0,15.0,80,0.00,,,0.00,,2013-03-16 18:52:00,
2013-03-16 14:02:00,46.0,40.0,29.95,North,350,9.0,15.0,80,0.00,,,0.00,,2013-03-16 19:02:00,
2013-03-16 14:12:00,46.0,40.0,29.95,North,350,9.0,15.0,80,0.00,,,0.00,,2013-03-16 19:12:00,
2013-03-16 14:22:00,45.0,39.0,29.95,NW,325,10.0,13.0,80,0.00,,,0.00,,2013-03-16 19:22:00,
2013-03-16 14:32:00,46.0,40.0,29.96,NNW,335,9.0,14.0,80,0.00,,,0.00,,2013-03-16 19:32:00,
2013-03-16 14:42:00,46.0,40.0,29.96,NNW,335,9.0,14.0,80,0.00,,,0.00,,2013-03-16 19:42:00,
2013-03-16 14:52:00,46.0,40.0,29.95,North,350,10.0,14.0,80,0.00,,,0.00,,2013-03-16 19:52:00,
2013-03-16 15:02:00,46.0,40.0,29.95,NNW,346,9.0,14.0,80,0.00,,,0.00,,2013-03-16 20:02:00,
2013-03-16 15:12:00,46.0,40.0,29.95,NNW,346,9.0,14.0,80,0.00,,,0.00,,2013-03-16 20:12:00,
2013-03-16 15:22:00,46.0,40.0,29.96,NW,321,11.0,16.0,79,0.00,,,0.00,,2013-03-16 20:22:00,
2013-03-16 15:32:00,45.0,39.0,29.97,NNW,342,10.0,19.0,80,0.00,,,0.00,,2013-03-16 20:32:00,
2013-03-16 15:42:00,45.0,39.0,29.97,NNW,342,10.0,19.0,80,0.00,,,0.00,,2013-03-16 20:42:00,
2013-03-16 15:52:00,44.0,39.0,29.97,North,355,8.0,16.0,82,0.00,,,0.00,,2013-03-16 20:52:00,
2013-03-16 16:02:00,44.0,39.0,29.97,North,355,8.0,16.0,82,0.00,,,0.00,,2013-03-16 21:02:00,
2013-03-16 16:12:00,44.0,39.0,29.97,North,355,8.0,16.0,82,0.00,,,0.00,,2013-03-16 21:12:00,
2013-03-16 16:22:00,44.0,39.0,29.96,NW,325,7.0,14.0,82,0.00,,,0.00,,2013-03-16 21:22:00,
2013-03-16 16:33:00,43.0,38.0,29.98,NNW,327,10.0,15.0,81,0.00,,,0.00,,2013-03-16 21:33:00,
2013-03-16 16:43:00,43.0,38.0,29.98,NNW,327,10.0,15.0,81,0.00,,,0.00,,2013-03-16 21:43:00,
2013-03-16 16:52:00,43.0,38.0,29.98,NNW,346,11.0,15.0,81,0.00,,,0.00,,2013-03-16 21:52:00,
2013-03-16 17:03:00,43.0,38.0,29.99,NNW,344,8.0,16.0,81,0.00,,,0.00,,2013-03-16 22:03:00,
2013-03-16 17:12:00,43.0,38.0,29.99,NNW,344,8.0,16.0,81,0.00,,,0.00,,2013-03-16 22:12:00,
2013-03-16 17:22:00,42.0,37.0,29.98,North,355,7.0,11.0,81,0.00,,,0.00,,2013-03-16 22:22:00,
2013-03-16 17:33:00,42.0,37.0,29.99,North,5,5.0,10.0,82,0.00,,,0.00,,2013-03-16 22:33:00,
2013-03-16 17:42:00,42.0,37.0,29.99,North,5,5.0,10.0,82,0.00,,,0.00,,2013-03-16 22:42:00,
2013-03-16 17:52:00,42.0,37.0,29.99,North,360,7.0,10.0,81,0.00,,,0.00,,2013-03-16 22:52:00,
2013-03-16 18:02:00,42.0,37.0,29.98,North,360,8.0,11.0,81,0.00,,,0.00,,2013-03-16 23:02:00,
2013-03-16 18:12:00,42.0,37.0,29.98,North,360,8.0,11.0,81,0.00,,,0.00,,2013-03-16 23:12:00,
2013-03-16 18:22:00,42.0,37.0,30.00,NNW,346,8.0,13.0,81,0.00,,,0.00,,2013-03-16 23:22:00,
2013-03-16 18:33:00,41.0,36.0,30.01,NNW,333,8.0,11.0,81,0.00,,,0.00,,2013-03-16 23:33:00,
2013-03-16 18:42:00,41.0,36.0,30.01,NNW,333,8.0,11.0,81,0.00,,,0.00,,2013-03-16 23:42:00,
2013-03-16 18:52:00,41.0,36.0,30.04,North,11,8.0,13.0,81,0.00,,,0.00,,2013-03-16 23:52:00,
2013-03-16 19:02:00,41.0,36.0,30.04,NNW,335,7.0,13.0,82,0.00,,,0.00,,2013-03-17 00:02:00,
2013-03-16 19:12:00,41.0,36.0,30.04,NNW,335,7.0,13.0,82,0.00,,,0.00,,2013-03-17 00:12:00,
2013-03-16 19:22:00,40.0,36.0,30.04,NNE,16,6.0,12.0,85,0.01,,,0.01,,2013-03-17 00:22:00,
2013-03-16 19:32:00,40.0,36.0,30.04,North,355,7.0,9.0,85,0.01,,,0.01,,2013-03-17 00:32:00,
2013-03-16 19:42:00,40.0,36.0,30.04,North,355,7.0,9.0,85,0.01,,,0.01,,2013-03-17 00:42:00,
2013-03-16 19:52:00,39.0,35.0,30.04,North,5,5.0,10.0,85,0.01,,,0.01,,2013-03-17 00:52:00,
2013-03-16 20:02:00,39.0,35.0,30.04,North,5,7.0,10.0,85,0.02,,,0.02,,2013-03-17 01:02:00,
2013-03-16 20:12:00,39.0,35.0,30.04,North,5,7.0,10.0,85,0.02,,,0.02,,2013-03-17 01:12:00,
2013-03-16 20:22:00,39.0,35.0,30.04,NNE,26,8.0,11.0,85,0.01,,,0.02,,2013-03-17 01:22:00,
2013-03-16 20:32:00,39.0,35.0,30.04,NNE,24,6.0,10.0,87,0.01,,,0.02,,2013-03-17 01:32:00,
2013-03-16 20:42:00,39.0,35.0,30.04,NNE,24,6.0,10.0,87,0.01,,,0.02,,2013-03-17 01:42:00,
2013-03-16 20:52:00,39.0,35.0,30.03,NNE,23,7.0,10.0,87,0.01,,,0.02,,2013-03-17 01:52:00,
2013-03-16 21:02:00,38.0,34.0,30.04,NNE,18,6.0,10.0,87,0.00,,,0.02,,2013-03-17 02:02:00,
2013-03-16 21:12:00,38.0,34.0,30.04,NNE,18,6.0,10.0,87,0.00,,,0.02,,2013-03-17 02:12:00,
2013-03-16 21:22:00,38.0,34.0,30.04,NNE,27,8.0,13.0,86,0.00,,,0.02,,2013-03-17 02:22:00,
2013-03-16 21:33:00,38.0,34.0,30.04,NE,40,6.0,11.0,87,0.01,,,0.03,,2013-03-17 02:33:00,
2013-03-16 21:42:00,38.0,34.0,30.04,NE,40,6.0,11.0,87,0.01,,,0.03,,2013-03-17 02:42:00,
2013-03-16 21:52:00,38.0,34.0,30.04,NNE,24,6.0,10.0,87,0.01,,,0.03,,2013-03-17 02:52:00,
2013-03-16 22:02:00,38.0,35.0,30.04,NE,37,8.0,10.0,88,0.01,,,0.03,,2013-03-17 03:02:00,
2013-03-16 22:12:00,38.0,35.0,30.04,NE,37,8.0,10.0,88,0.01,,,0.03,,2013-03-17 03:12:00,
2013-03-16 22:22:00,38.0,35.0,30.03,North,9,7.0,12.0,89,0.02,,,0.04,,2013-03-17 03:22:00,
2013-03-16 22:33:00,38.0,35.0,30.03,North,9,7.0,12.0,89,0.02,,,0.04,,2013-03-17 03:33:00,
2013-03-16 22:43:00,38.0,35.0,30.03,North,9,7.0,12.0,89,0.02,,,0.04,,2013-03-17 03:43:00,
2013-03-16 22:52:00,38.0,35.0,30.05,North,11,9.0,12.0,88,0.02,,,0.05,,2013-03-17 03:52:00,
2013-03-16 23:03:00,37.0,33.0,30.05,NNE,17,10.0,14.0,86,0.02,,,0.05,,2013-03-17 04:03:00,
2013-03-16 23:12:00,37.0,33.0,30.05,NNE,17,10.0,14.0,86,0.02,,,0.05,,2013-03-17 04:12:00,
2013-03-16 23:23:00,37.0,33.0,30.06,North,360,8.0,11.0,86,0.02,,,0.06,,2013-03-17 04:23:00,
2013-03-16 23:32:00,37.0,34.0,30.05,North,5,6.0,13.0,87,0.01,,,0.06,,2013-03-17 04:32:00,
2013-03-16 23:42:00,37.0,34.0,30.05,North,5,6.0,13.0,87,0.01,,,0.06,,2013-03-17 04:42:00,
2013-03-16 23:53:00,37.0,33.0,30.06,North,5,7.0,11.0,85,0.01,,,0.06,,2013-03-17 04:53:00,